createdAt,value
2018-09-11T00:01:20.692Z,2.00
2018-09-11T00:03:49.657Z,2.10
2018-09-11T00:06:18.554Z,1.83
2018-09-11T00:08:47.537Z,1.87
2018-09-11T00:11:16.436Z,1.87
2018-09-11T00:13:45.377Z,1.90
2018-09-11T00:16:14.324Z,1.80
2018-09-11T00:18:43.220Z,1.60
2018-09-11T00:21:12.149Z,1.60
2018-09-11T00:23:41.077Z,1.80
2018-09-11T00:26:10.200Z,2.00
2018-09-11T00:28:39.117Z,1.90
2018-09-11T00:31:08.093Z,2.00
2018-09-11T00:33:36.984Z,2.23
2018-09-11T00:36:05.940Z,2.43
2018-09-11T00:38:34.832Z,1.77
2018-09-11T00:41:03.812Z,1.73
2018-09-11T00:43:32.705Z,1.80
2018-09-11T00:46:01.649Z,1.90
2018-09-11T00:48:30.545Z,1.73
2018-09-11T00:50:59.480Z,1.90
2018-09-11T00:53:28.404Z,2.20
2018-09-11T00:55:57.346Z,1.90
2018-09-11T00:58:26.260Z,1.60
2018-09-11T01:00:55.153Z,2.03
2018-09-11T01:03:24.084Z,1.73
2018-09-11T01:05:52.979Z,2.00
2018-09-11T01:08:21.917Z,2.03
2018-09-11T01:10:50.810Z,1.83
2018-09-11T01:13:19.753Z,2.20
2018-09-11T01:15:48.652Z,2.17
2018-09-11T01:18:17.603Z,1.97
2018-09-11T01:20:46.513Z,2.17
2018-09-11T01:23:15.452Z,1.90
2018-09-11T01:25:44.391Z,1.90
2018-09-11T01:28:13.334Z,1.90
2018-09-11T01:30:42.292Z,2.13
2018-09-11T01:33:11.184Z,2.07
2018-09-11T01:35:40.136Z,1.87
2018-09-11T01:38:09.077Z,1.90
2018-09-11T01:40:38.056Z,1.87
2018-09-11T01:43:07.069Z,2.00
2018-09-11T01:45:36.034Z,2.10
2018-09-11T01:48:04.928Z,2.07
2018-09-11T01:50:33.912Z,1.87
2018-09-11T01:53:02.796Z,1.77
2018-09-11T01:55:31.732Z,1.93
2018-09-11T01:58:00.637Z,2.03
2018-09-11T02:00:29.578Z,2.20
2018-09-11T02:02:58.480Z,1.87
2018-09-11T02:05:27.425Z,1.90
2018-09-11T02:07:56.315Z,1.90
2018-09-11T02:10:25.241Z,1.70
2018-09-11T02:12:54.136Z,1.87
2018-09-11T02:15:23.113Z,2.13
2018-09-11T02:17:52.133Z,1.80
2018-09-11T02:20:21.114Z,1.80
2018-09-11T02:22:50.147Z,1.80
2018-09-11T02:25:19.052Z,1.83
2018-09-11T02:27:47.992Z,1.80
2018-09-11T02:30:16.962Z,1.70
2018-09-11T02:32:45.876Z,1.97
2018-09-11T02:35:14.769Z,1.90
2018-09-11T02:37:43.721Z,1.87
2018-09-11T02:40:12.605Z,2.00
2018-09-11T02:42:41.496Z,1.73
2018-09-11T02:45:10.468Z,1.57
2018-09-11T02:47:39.394Z,1.93
2018-09-11T02:50:08.713Z,2.00
2018-09-11T02:52:37.868Z,2.00
2018-09-11T02:55:07.559Z,2.17
2018-09-11T02:57:36.656Z,2.33
2018-09-11T03:00:05.594Z,1.90
2018-09-11T03:02:34.488Z,2.03
2018-09-11T03:05:03.449Z,2.40
2018-09-11T03:07:32.401Z,1.93
2018-09-11T03:10:01.372Z,1.93
2018-09-11T03:12:30.277Z,1.90
2018-09-11T03:14:59.221Z,2.00
2018-09-11T03:17:28.136Z,2.00
2018-09-11T03:19:57.069Z,1.93
2018-09-11T03:22:25.964Z,1.90
2018-09-11T03:24:54.873Z,2.10
2018-09-11T03:27:23.853Z,2.00
2018-09-11T03:29:52.765Z,2.10
2018-09-11T03:32:21.709Z,2.33
2018-09-11T03:34:50.742Z,2.10
2018-09-11T03:37:19.685Z,2.10
2018-09-11T03:39:48.694Z,1.77
2018-09-11T03:42:17.708Z,2.30
2018-09-11T03:44:46.577Z,2.47
2018-09-11T03:47:15.511Z,2.20
2018-09-11T03:49:44.396Z,2.10
2018-09-11T03:52:13.385Z,2.40
2018-09-11T03:54:42.290Z,2.17
2018-09-11T03:57:11.185Z,2.43
2018-09-11T03:59:40.165Z,2.20
2018-09-11T04:02:09.089Z,2.10
2018-09-11T04:04:38.077Z,1.90
2018-09-11T04:07:06.978Z,2.20
2018-09-11T04:09:35.989Z,2.10
2018-09-11T04:12:04.901Z,2.00
2018-09-11T04:14:33.848Z,2.20
2018-09-11T04:17:02.741Z,2.30
2018-09-11T04:19:31.703Z,2.30
2018-09-11T04:22:00.589Z,2.40
2018-09-11T04:24:29.561Z,2.43
2018-09-11T04:26:58.449Z,2.00
2018-09-11T04:29:27.399Z,2.33
2018-09-11T04:31:56.296Z,2.03
2018-09-11T04:34:25.233Z,2.07
2018-09-11T04:36:54.159Z,2.40
2018-09-11T04:39:23.085Z,2.23
2018-09-11T04:41:52.032Z,2.20
2018-09-11T04:44:20.928Z,1.83
2018-09-11T04:46:49.866Z,2.43
2018-09-11T04:49:18.775Z,2.50
2018-09-11T04:51:47.715Z,2.73
2018-09-11T04:54:16.624Z,2.80
2018-09-11T04:56:45.569Z,2.73
2018-09-11T04:59:14.453Z,2.40
2018-09-11T05:01:43.381Z,2.70
2018-09-11T05:04:12.286Z,2.67
2018-09-11T05:06:41.229Z,2.70
2018-09-11T05:09:10.888Z,2.60
2018-09-11T05:11:39.889Z,2.50
2018-09-11T05:14:09.201Z,2.60
2018-09-11T05:16:38.222Z,2.70
2018-09-11T05:19:07.147Z,2.77
2018-09-11T05:21:36.064Z,2.60
2018-09-11T05:24:05.007Z,2.60
2018-09-11T05:26:33.916Z,3.10
2018-09-11T05:29:02.873Z,2.63
2018-09-11T05:31:31.784Z,3.10
2018-09-11T05:34:00.717Z,2.60
2018-09-11T05:36:29.628Z,3.20
2018-09-11T05:38:58.823Z,3.17
2018-09-11T05:41:27.725Z,2.90
2018-09-11T05:43:56.660Z,2.67
2018-09-11T05:46:25.545Z,3.47
2018-09-11T05:48:54.554Z,2.77
2018-09-11T05:51:23.569Z,3.23
2018-09-11T05:53:52.488Z,3.10
2018-09-11T05:56:21.892Z,2.87
2018-09-11T05:58:50.840Z,3.20
2018-09-11T06:01:19.920Z,2.90
2018-09-11T06:03:48.816Z,3.30
2018-09-11T06:06:17.768Z,3.47
2018-09-11T06:08:46.662Z,2.60
2018-09-11T06:11:15.613Z,2.83
2018-09-11T06:13:44.531Z,3.60
2018-09-11T06:16:13.498Z,2.83
2018-09-11T06:18:42.390Z,3.03
2018-09-11T06:21:11.337Z,3.07
2018-09-11T06:23:40.248Z,3.20
2018-09-11T06:26:09.332Z,3.20
2018-09-11T06:28:38.233Z,3.07
2018-09-11T06:31:07.532Z,3.23
2018-09-11T06:33:36.436Z,3.17
2018-09-11T06:36:05.333Z,3.87
2018-09-11T06:38:34.273Z,2.50
2018-09-11T06:41:03.320Z,3.87
2018-09-11T06:43:32.221Z,3.20
2018-09-11T06:46:01.115Z,3.03
2018-09-11T06:48:30.085Z,3.30
2018-09-11T06:50:58.988Z,3.60
2018-09-11T06:53:27.933Z,3.10
2018-09-11T06:55:56.834Z,3.47
2018-09-11T06:58:25.780Z,2.97
2018-09-11T07:00:54.664Z,3.10
2018-09-11T07:03:23.608Z,3.07
2018-09-11T07:05:52.558Z,3.10
2018-09-11T07:08:21.496Z,3.00
2018-09-11T07:10:50.427Z,2.57
2018-09-11T07:13:19.324Z,3.30
2018-09-11T07:15:48.260Z,3.00
2018-09-11T07:18:17.160Z,2.67
2018-09-11T07:20:46.113Z,2.87
2018-09-11T07:23:15.020Z,3.00
2018-09-11T07:25:43.948Z,2.60
2018-09-11T07:28:12.833Z,2.70
2018-09-11T07:30:41.769Z,2.43
2018-09-11T07:33:10.685Z,2.63
2018-09-11T07:35:39.672Z,2.50
2018-09-11T07:38:08.585Z,2.57
2018-09-11T07:40:37.552Z,2.57
2018-09-11T07:43:06.458Z,2.70
2018-09-11T07:45:35.394Z,2.40
2018-09-11T07:48:04.320Z,2.00
2018-09-11T07:50:33.244Z,2.40
2018-09-11T07:53:02.170Z,2.80
2018-09-11T07:55:31.133Z,3.33
2018-09-11T07:58:00.115Z,2.90
2018-09-11T08:00:29.125Z,2.60
2018-09-11T08:02:58.164Z,2.50
2018-09-11T08:05:27.038Z,2.77
2018-09-11T08:07:55.968Z,2.80
2018-09-11T08:10:24.892Z,2.90
2018-09-11T08:12:53.816Z,2.40
2018-09-11T08:15:22.716Z,3.00
2018-09-11T08:17:51.662Z,2.93
2018-09-11T08:20:20.796Z,2.70
2018-09-11T08:22:49.742Z,2.40
2018-09-11T08:25:18.636Z,1.93
2018-09-11T08:27:47.573Z,2.03
2018-09-11T08:30:16.552Z,2.43
2018-09-11T08:32:45.497Z,2.40
2018-09-11T08:35:14.409Z,2.30
2018-09-11T08:37:43.340Z,2.13
2018-09-11T08:40:12.241Z,2.03
2018-09-11T08:42:41.245Z,2.10
2018-09-11T08:45:10.161Z,2.10
2018-09-11T08:47:39.121Z,1.97
2018-09-11T08:50:08.045Z,1.87
2018-09-11T08:52:37.041Z,1.87
2018-09-11T08:55:05.930Z,2.10
2018-09-11T08:57:34.889Z,1.83
2018-09-11T09:00:04.589Z,1.93
2018-09-11T09:02:33.513Z,2.07
2018-09-11T09:05:02.936Z,1.93
2018-09-11T09:07:31.872Z,1.87
2018-09-11T09:10:00.810Z,1.60
2018-09-11T09:12:29.756Z,1.90
2018-09-11T09:14:58.643Z,2.00
2018-09-11T09:17:27.721Z,1.77
2018-09-11T09:19:56.655Z,1.97
2018-09-11T09:22:25.588Z,1.93
2018-09-11T09:24:54.543Z,1.80
2018-09-11T09:27:23.489Z,1.87
2018-09-11T09:29:52.440Z,1.83
2018-09-11T09:32:21.342Z,1.73
2018-09-11T09:34:50.282Z,1.90
2018-09-11T09:37:19.348Z,1.97
2018-09-11T09:39:48.288Z,1.77
2018-09-11T09:42:17.245Z,1.80
2018-09-11T09:44:46.209Z,1.80
2018-09-11T09:47:15.190Z,2.00
2018-09-11T09:49:44.120Z,1.50
2018-09-11T09:52:13.016Z,1.80
2018-09-11T09:54:41.959Z,1.87
2018-09-11T09:57:10.897Z,1.50
2018-09-11T09:59:39.845Z,1.70
2018-09-11T10:02:13.853Z,1.97
2018-09-11T10:04:42.829Z,1.60
2018-09-11T10:07:11.711Z,1.80
2018-09-11T10:09:40.673Z,1.70
2018-09-11T10:12:09.608Z,1.80
2018-09-11T10:14:38.544Z,1.90
2018-09-11T10:17:08.305Z,1.93
2018-09-11T10:19:37.237Z,2.53
2018-09-11T10:22:06.204Z,1.80
2018-09-11T10:24:35.665Z,1.60
2018-09-11T10:27:04.737Z,2.00
2018-09-11T10:29:33.648Z,1.97
2018-09-11T10:32:02.540Z,1.77
2018-09-11T10:34:31.520Z,2.17
2018-09-11T10:37:00.434Z,1.93
2018-09-11T10:39:29.459Z,1.20
2018-09-11T10:41:58.357Z,1.80
2018-09-11T10:44:27.300Z,1.90
2018-09-11T10:46:56.192Z,1.70
2018-09-11T10:49:25.132Z,1.77
2018-09-11T10:51:54.175Z,2.10
2018-09-11T10:54:23.090Z,1.70
2018-09-11T10:56:51.989Z,1.67
2018-09-11T10:59:20.916Z,1.77
2018-09-11T11:01:49.817Z,1.97
2018-09-11T11:04:18.849Z,1.70
2018-09-11T11:06:47.748Z,1.73
2018-09-11T11:09:16.695Z,1.83
2018-09-11T11:11:45.584Z,1.73
2018-09-11T11:14:14.525Z,1.70
2018-09-11T11:16:43.451Z,1.93
2018-09-11T11:19:12.361Z,2.13
2018-09-11T11:21:41.272Z,1.70
2018-09-11T11:24:10.246Z,1.67
2018-09-11T11:26:39.157Z,1.73
2018-09-11T11:29:08.081Z,1.37
2018-09-11T11:31:36.989Z,1.73
2018-09-11T11:34:05.904Z,1.70
2018-09-11T11:36:34.894Z,1.73
2018-09-11T11:39:04.272Z,1.70
2018-09-11T11:41:33.221Z,1.70
2018-09-11T11:44:02.117Z,1.40
2018-09-11T11:46:31.053Z,1.77
2018-09-11T11:48:59.943Z,1.60
2018-09-11T11:51:28.921Z,1.47
2018-09-11T11:53:57.855Z,1.37
2018-09-11T11:56:26.772Z,1.70
2018-09-11T11:58:55.685Z,1.60
2018-09-11T12:01:24.714Z,1.40
2018-09-11T12:03:53.605Z,1.50
2018-09-11T12:06:22.545Z,1.53
2018-09-11T12:08:51.451Z,1.80
2018-09-11T12:11:20.406Z,1.60
2018-09-11T12:13:49.289Z,1.73
2018-09-11T12:16:18.283Z,1.73
2018-09-11T12:18:47.141Z,1.60
2018-09-11T12:21:16.116Z,1.77
2018-09-11T12:23:45.005Z,1.50
2018-09-11T12:26:13.937Z,1.60
2018-09-11T12:28:42.854Z,1.50
2018-09-11T12:31:11.861Z,1.90
2018-09-11T12:33:40.717Z,1.45
2018-09-11T12:36:09.749Z,1.40
2018-09-11T12:38:38.655Z,1.30
2018-09-11T12:41:12.848Z,1.40
2018-09-11T12:43:41.774Z,1.75
2018-09-11T12:46:10.908Z,1.25
2018-09-11T12:48:39.779Z,1.77
2018-09-11T12:51:08.622Z,1.40
2018-09-11T12:53:37.526Z,1.67
2018-09-11T12:56:06.449Z,1.40
2018-09-11T12:58:35.384Z,1.77
2018-09-11T13:01:04.312Z,1.42
2018-09-11T13:03:33.234Z,1.47
2018-09-11T13:06:02.568Z,1.50
2018-09-11T13:08:31.457Z,1.40
2018-09-11T13:11:00.453Z,1.50
2018-09-11T13:13:29.442Z,1.90
2018-09-11T13:15:58.368Z,1.70
2018-09-11T13:18:27.252Z,1.70
2018-09-11T13:20:56.177Z,1.50
2018-09-11T13:23:25.044Z,1.90
2018-09-11T13:25:53.977Z,1.40
2018-09-11T13:28:22.887Z,1.40
2018-09-11T13:30:51.821Z,1.57
2018-09-11T13:33:20.707Z,1.52
2018-09-11T13:35:49.638Z,1.40
2018-09-11T13:38:18.557Z,1.60
2018-09-11T13:40:47.525Z,1.65
2018-09-11T13:43:16.504Z,1.37
2018-09-11T13:45:45.430Z,1.67
2018-09-11T13:48:14.403Z,1.50
2018-09-11T13:50:43.318Z,1.20
2018-09-11T13:53:12.250Z,1.45
2018-09-11T13:55:41.136Z,1.52
2018-09-11T13:58:10.062Z,1.80
2018-09-11T14:00:38.941Z,1.35
2018-09-11T14:03:07.908Z,1.55
2018-09-11T14:05:36.797Z,1.25
2018-09-11T14:08:06.017Z,1.40
2018-09-11T14:10:34.913Z,1.40
2018-09-11T14:13:03.844Z,1.50
2018-09-11T14:15:32.721Z,1.40
2018-09-11T14:18:01.653Z,1.70
2018-09-11T14:20:30.572Z,1.67
2018-09-11T14:22:59.492Z,1.50
2018-09-11T14:25:28.408Z,1.60
2018-09-11T14:27:57.333Z,1.57
2018-09-11T14:30:26.220Z,1.50
2018-09-11T14:32:55.140Z,2.00
2018-09-11T14:35:24.033Z,1.55
2018-09-11T14:37:52.973Z,1.62
2018-09-11T14:40:21.885Z,1.75
2018-09-11T14:42:50.852Z,1.40
2018-09-11T14:45:20.033Z,1.60
2018-09-11T14:47:49.034Z,1.65
2018-09-11T14:50:17.912Z,1.77
2018-09-11T14:52:46.825Z,1.40
2018-09-11T14:55:15.717Z,2.00
2018-09-11T14:57:44.657Z,1.57
2018-09-11T15:00:13.568Z,1.42
2018-09-11T15:02:42.493Z,1.22
2018-09-11T15:05:11.377Z,1.30
2018-09-11T15:07:40.288Z,1.32
2018-09-11T15:10:09.269Z,1.25
2018-09-11T15:12:38.180Z,1.55
2018-09-11T15:15:07.126Z,1.52
2018-09-11T15:17:36.110Z,1.22
2018-09-11T15:20:05.321Z,1.50
2018-09-11T15:22:34.341Z,1.60
2018-09-11T15:25:03.344Z,1.70
2018-09-11T15:27:32.300Z,1.60
2018-09-11T15:30:01.296Z,1.40
2018-09-11T15:32:30.180Z,1.45
2018-09-11T15:34:59.063Z,1.82
2018-09-11T15:37:27.997Z,1.57
2018-09-11T15:39:56.921Z,1.50
2018-09-11T15:42:25.921Z,1.40
2018-09-11T15:44:54.864Z,1.67
2018-09-11T15:47:23.761Z,1.47
2018-09-11T15:49:52.676Z,1.50
2018-09-11T15:52:21.569Z,1.35
2018-09-11T15:54:50.507Z,1.42
2018-09-11T15:57:19.389Z,1.45
2018-09-11T15:59:48.314Z,1.50
2018-09-11T16:02:17.213Z,1.40
2018-09-11T16:04:46.129Z,1.50
2018-09-11T16:07:15.014Z,1.50
2018-09-11T16:09:43.949Z,1.42
2018-09-11T16:12:12.833Z,1.60
2018-09-11T16:14:41.756Z,1.30
2018-09-11T16:17:10.662Z,1.50
2018-09-11T16:19:39.577Z,1.37
2018-09-11T16:22:08.540Z,1.40
2018-09-11T16:24:37.419Z,1.40
2018-09-11T16:27:06.344Z,1.50
2018-09-11T16:29:35.264Z,1.30
2018-09-11T16:32:04.157Z,1.30
2018-09-11T16:34:33.105Z,1.40
2018-09-11T16:37:02.004Z,1.55
2018-09-11T16:39:30.952Z,1.50
2018-09-11T16:41:59.912Z,1.42
2018-09-11T16:44:28.837Z,1.57
2018-09-11T16:46:57.732Z,1.65
2018-09-11T16:49:26.700Z,1.70
2018-09-11T16:51:55.620Z,1.40
2018-09-11T16:54:24.547Z,1.50
2018-09-11T16:56:53.484Z,2.00
2018-09-11T16:59:22.437Z,1.95
2018-09-11T17:01:51.349Z,2.07
2018-09-11T17:04:20.313Z,1.82
2018-09-11T17:06:49.205Z,1.97
2018-09-11T17:09:18.157Z,1.83
2018-09-11T17:11:47.056Z,1.70
2018-09-11T17:14:16.036Z,1.70
2018-09-11T17:16:44.949Z,2.02
2018-09-11T17:19:13.873Z,1.73
2018-09-11T17:21:42.777Z,1.60
2018-09-11T17:24:11.710Z,1.70
2018-09-11T17:26:40.617Z,1.77
2018-09-11T17:29:09.549Z,2.10
2018-09-11T17:31:38.461Z,1.87
2018-09-11T17:34:07.570Z,1.97
2018-09-11T17:36:36.472Z,1.70
2018-09-11T17:39:08.506Z,1.50
2018-09-11T17:41:37.707Z,1.67
2018-09-11T17:44:07.554Z,1.80
2018-09-11T17:46:36.541Z,1.73
2018-09-11T17:49:05.635Z,2.37
2018-09-11T17:51:34.575Z,1.73
2018-09-11T17:54:04.047Z,1.40
2018-09-11T17:56:32.958Z,1.50
2018-09-11T17:59:01.910Z,1.90
2018-09-11T18:01:30.977Z,1.67
2018-09-11T18:04:00.093Z,1.63
2018-09-11T18:06:29.439Z,1.50
2018-09-11T18:08:58.700Z,1.50
2018-09-11T18:11:27.665Z,1.50
2018-09-11T18:13:56.596Z,1.30
2018-09-11T18:16:25.537Z,1.50
2018-09-11T18:18:54.436Z,1.37
2018-09-11T18:21:23.370Z,1.50
2018-09-11T18:23:52.327Z,1.50
2018-09-11T18:26:21.358Z,1.60
2018-09-11T18:28:50.379Z,1.73
2018-09-11T18:31:19.412Z,1.40
2018-09-11T18:33:48.533Z,1.33
2018-09-11T18:36:17.475Z,1.53
2018-09-11T18:38:46.365Z,1.60
2018-09-11T18:41:16.321Z,1.47
2018-09-11T18:43:45.257Z,1.60
2018-09-11T18:46:14.192Z,1.53
2018-09-11T18:48:43.097Z,1.73
2018-09-11T18:51:12.039Z,1.70
2018-09-11T18:53:40.953Z,1.60
2018-09-11T18:56:09.872Z,1.83
2018-09-11T18:58:38.765Z,1.60
2018-09-11T19:01:07.697Z,2.20
2018-09-11T19:03:36.602Z,1.43
2018-09-11T19:06:05.545Z,1.80
2018-09-11T19:08:34.501Z,1.60
2018-09-11T19:11:03.488Z,1.60
2018-09-11T19:13:32.422Z,1.53
2018-09-11T19:16:01.443Z,1.50
2018-09-11T19:18:30.381Z,1.60
2018-09-11T19:20:59.326Z,1.70
2018-09-11T19:23:28.233Z,1.43
2018-09-11T19:25:57.164Z,1.80
2018-09-11T19:28:26.084Z,1.63
2018-09-11T19:30:55.057Z,1.53
2018-09-11T19:33:23.953Z,1.83
2018-09-11T19:35:52.933Z,2.00
2018-09-11T19:38:21.881Z,1.77
2018-09-11T19:40:50.818Z,1.40
2018-09-11T19:43:19.797Z,1.70
2018-09-11T19:45:48.737Z,1.67
2018-09-11T19:48:17.651Z,1.63
2018-09-11T19:50:46.585Z,1.50
2018-09-11T19:53:15.497Z,1.90
2018-09-11T19:55:44.453Z,1.87
2018-09-11T19:58:13.453Z,1.50
2018-09-11T20:00:42.399Z,1.30
2018-09-11T20:03:11.424Z,1.60
2018-09-11T20:05:40.341Z,2.00
2018-09-11T20:08:09.275Z,1.63
2018-09-11T20:10:38.169Z,1.50
2018-09-11T20:13:07.417Z,1.50
2018-09-11T20:15:36.337Z,1.90
2018-09-11T20:18:05.376Z,1.70
2018-09-11T20:20:34.378Z,2.03
2018-09-11T20:23:03.331Z,1.40
2018-09-11T20:25:32.419Z,1.67
2018-09-11T20:28:01.282Z,1.50
2018-09-11T20:30:30.189Z,2.20
2018-09-11T20:32:59.121Z,1.60
2018-09-11T20:35:28.028Z,1.50
2018-09-11T20:37:56.949Z,1.60
2018-09-11T20:40:25.873Z,1.83
2018-09-11T20:42:54.874Z,1.87
2018-09-11T20:45:23.802Z,1.80
2018-09-11T20:47:52.736Z,1.60
2018-09-11T20:50:21.651Z,1.80
2018-09-11T20:52:50.573Z,1.73
2018-09-11T20:55:19.483Z,1.87
2018-09-11T20:57:48.405Z,1.50
2018-09-11T21:00:17.305Z,1.93
2018-09-11T21:02:46.230Z,1.80
2018-09-11T21:05:15.181Z,1.30
2018-09-11T21:07:44.117Z,1.70
2018-09-11T21:10:13.021Z,1.87
2018-09-11T21:12:41.945Z,2.03
2018-09-11T21:15:10.881Z,1.63
2018-09-11T21:17:39.809Z,1.70
2018-09-11T21:20:08.700Z,2.10
2018-09-11T21:22:37.629Z,1.97
2018-09-11T21:25:06.556Z,1.80
2018-09-11T21:27:35.505Z,1.93
2018-09-11T21:30:04.442Z,2.07
2018-09-11T21:32:33.393Z,1.70
2018-09-11T21:35:02.313Z,1.97
2018-09-11T21:37:31.268Z,1.90
2018-09-11T21:40:00.185Z,2.30
2018-09-11T21:42:29.165Z,2.07
2018-09-11T21:44:58.073Z,2.10
2018-09-11T21:47:27.045Z,1.77
2018-09-11T21:49:55.960Z,1.90
2018-09-11T21:52:24.921Z,2.00
2018-09-11T21:54:53.841Z,2.00
2018-09-11T21:57:22.777Z,2.00
2018-09-11T21:59:51.693Z,1.80
2018-09-11T22:02:20.726Z,2.20
2018-09-11T22:04:49.625Z,1.90
2018-09-11T22:07:18.540Z,2.30
2018-09-11T22:09:47.437Z,1.80
2018-09-11T22:12:16.495Z,1.60
2018-09-11T22:14:45.397Z,2.20
2018-09-11T22:17:14.348Z,1.53
2018-09-11T22:19:43.233Z,1.80
2018-09-11T22:22:12.172Z,1.73
2018-09-11T22:24:41.091Z,2.10
2018-09-11T22:27:10.013Z,2.17
2018-09-11T22:29:38.947Z,2.00
2018-09-11T22:32:07.832Z,1.90
2018-09-11T22:34:36.793Z,1.70
2018-09-11T22:37:05.717Z,2.10
2018-09-11T22:39:34.699Z,1.73
2018-09-11T22:42:03.701Z,2.13
2018-09-11T22:44:32.647Z,2.17
2018-09-11T22:47:01.558Z,1.67
2018-09-11T22:49:30.553Z,2.30
2018-09-11T22:51:59.490Z,1.80
2018-09-11T22:54:28.413Z,1.90
2018-09-11T22:56:57.404Z,2.07
2018-09-11T22:59:26.341Z,1.90
2018-09-11T23:01:55.249Z,1.83
2018-09-11T23:04:24.201Z,2.30
2018-09-11T23:06:53.109Z,1.80
2018-09-11T23:09:22.047Z,2.30
2018-09-11T23:11:50.947Z,2.03
2018-09-11T23:14:19.882Z,2.13
2018-09-11T23:16:48.787Z,2.20
2018-09-11T23:19:17.736Z,2.00
2018-09-11T23:21:46.641Z,1.93
2018-09-11T23:24:15.577Z,2.20
2018-09-11T23:26:44.560Z,1.90
2018-09-11T23:29:13.502Z,2.30
2018-09-11T23:31:42.480Z,2.03
2018-09-11T23:34:11.408Z,1.87
2018-09-11T23:36:40.317Z,1.90
2018-09-11T23:39:09.389Z,2.17
2018-09-11T23:41:38.789Z,2.13
2018-09-11T23:44:08.297Z,2.00
2018-09-11T23:46:37.225Z,2.00
2018-09-11T23:49:06.352Z,2.03
2018-09-11T23:51:35.284Z,1.97
2018-09-11T23:54:04.216Z,2.07
2018-09-11T23:56:33.128Z,2.10
2018-09-11T23:59:02.074Z,1.93
